createdAt,value
2023-07-14T00:00:03.968Z,37.57
2023-07-14T00:01:04.006Z,37.97
2023-07-14T00:02:03.985Z,37.18
2023-07-14T00:03:04.057Z,38.37
2023-07-14T00:04:03.954Z,38.37
2023-07-14T00:05:03.949Z,38.17
2023-07-14T00:06:03.948Z,37.77
2023-07-14T00:07:03.865Z,37.38
2023-07-14T00:08:03.898Z,38.17
2023-07-14T00:09:03.865Z,38.77
2023-07-14T00:10:03.854Z,38.37
2023-07-14T00:11:03.856Z,37.97
2023-07-14T00:12:03.881Z,36.78
2023-07-14T00:13:03.860Z,37.97
2023-07-14T00:14:03.808Z,37.18
2023-07-14T00:15:03.829Z,36.98
2023-07-14T00:16:03.838Z,37.77
2023-07-14T00:17:03.852Z,36.98
2023-07-14T00:18:03.796Z,37.38
2023-07-14T00:19:03.833Z,39.36
2023-07-14T00:20:03.749Z,35.79
2023-07-14T00:21:03.773Z,36.98
2023-07-14T00:22:03.760Z,37.38
2023-07-14T00:23:03.798Z,37.77
2023-07-14T00:24:03.713Z,37.38
2023-07-14T00:25:03.738Z,37.77
2023-07-14T00:26:03.735Z,37.57
2023-07-14T00:27:03.752Z,37.38
2023-07-14T00:28:03.689Z,37.38
2023-07-14T00:29:03.777Z,37.18
2023-07-14T00:30:03.648Z,37.77
2023-07-14T00:31:03.689Z,37.77
2023-07-14T00:32:03.656Z,37.38
2023-07-14T00:33:03.677Z,36.78
2023-07-14T00:34:03.593Z,37.97
2023-07-14T00:35:03.692Z,37.38
2023-07-14T00:36:03.560Z,38.77
2023-07-14T00:37:03.585Z,37.18
2023-07-14T00:38:03.565Z,38.17
2023-07-14T00:39:03.559Z,37.57
2023-07-14T00:40:03.597Z,38.17
2023-07-14T00:41:03.549Z,37.57
2023-07-14T00:42:03.524Z,37.38
2023-07-14T00:43:03.559Z,38.97
2023-07-14T00:44:03.467Z,37.57
2023-07-14T00:45:03.542Z,37.97
2023-07-14T00:46:03.464Z,36.98
2023-07-14T00:47:03.495Z,37.18
2023-07-14T00:48:03.515Z,37.97
2023-07-14T00:49:03.494Z,37.38
2023-07-14T00:50:03.496Z,37.77
2023-07-14T00:51:03.476Z,37.77
2023-07-14T00:52:03.408Z,37.38
2023-07-14T00:53:03.437Z,36.98
2023-07-14T00:54:03.385Z,37.57
2023-07-14T00:55:03.400Z,36.98
2023-07-14T00:56:03.326Z,38.17
2023-07-14T00:57:03.362Z,37.38
2023-07-14T00:58:03.348Z,37.18
2023-07-14T00:59:03.379Z,37.18
2023-07-14T01:00:03.332Z,37.97
2023-07-14T01:01:03.365Z,38.57
2023-07-14T01:02:03.389Z,37.57
2023-07-14T01:03:03.405Z,36.78
2023-07-14T01:04:03.285Z,37.18
2023-07-14T01:05:03.448Z,36.78
2023-07-14T01:06:03.255Z,35.79
2023-07-14T01:07:03.268Z,35.98
2023-07-14T01:08:03.232Z,38.77
2023-07-14T01:09:03.252Z,37.57
2023-07-14T01:10:03.183Z,36.98
2023-07-14T01:11:03.248Z,36.38
2023-07-14T01:12:03.152Z,38.77
2023-07-14T01:13:03.279Z,38.77
2023-07-14T01:14:03.171Z,39.96
2023-07-14T01:15:03.166Z,37.57
2023-07-14T01:16:03.234Z,37.18
2023-07-14T01:17:03.142Z,37.97
2023-07-14T01:18:03.185Z,37.77
2023-07-14T01:19:03.092Z,37.57
2023-07-14T01:20:03.061Z,37.77
2023-07-14T01:21:03.109Z,38.17
2023-07-14T01:22:03.061Z,37.97
2023-07-14T01:23:03.197Z,37.38
2023-07-14T01:24:03.118Z,37.57
2023-07-14T01:25:03.052Z,37.18
2023-07-14T01:26:03.009Z,37.97
2023-07-14T01:27:03.040Z,38.77
2023-07-14T01:28:03.111Z,37.18
2023-07-14T01:29:02.996Z,38.17
2023-07-14T01:30:02.988Z,37.18
2023-07-14T01:31:03.035Z,37.97
2023-07-14T01:32:03.029Z,37.97
2023-07-14T01:33:03.002Z,37.38
2023-07-14T01:34:02.988Z,37.97
2023-07-14T01:35:02.961Z,36.98
2023-07-14T01:36:02.894Z,37.38
2023-07-14T01:37:02.967Z,37.77
2023-07-14T01:38:02.885Z,37.38
2023-07-14T01:39:02.913Z,37.57
2023-07-14T01:40:02.836Z,36.98
2023-07-14T01:41:02.881Z,37.57
2023-07-14T01:42:02.852Z,37.77
2023-07-14T01:43:02.872Z,37.57
2023-07-14T01:44:02.864Z,36.78
2023-07-14T01:45:02.879Z,37.38
2023-07-14T01:46:02.807Z,38.37
2023-07-14T01:47:02.848Z,36.98
2023-07-14T01:48:02.791Z,37.77
2023-07-14T01:49:02.794Z,35.39
2023-07-14T01:50:02.751Z,37.57
2023-07-14T01:51:02.852Z,37.97
2023-07-14T01:52:02.735Z,37.38
2023-07-14T01:53:02.777Z,37.77
2023-07-14T01:54:02.706Z,37.77
2023-07-14T01:55:02.724Z,37.18
2023-07-14T01:56:02.717Z,37.18
2023-07-14T01:57:02.821Z,37.57
2023-07-14T01:58:02.708Z,37.57
2023-07-14T01:59:02.670Z,37.57
2023-07-14T02:00:02.685Z,37.38
2023-07-14T02:01:02.676Z,37.18
2023-07-14T02:02:02.684Z,37.57
2023-07-14T02:03:02.841Z,37.18
2023-07-14T02:04:02.594Z,37.57
2023-07-14T02:05:02.605Z,38.17
2023-07-14T02:06:02.570Z,37.57
2023-07-14T02:07:02.675Z,37.57
2023-07-14T02:08:02.568Z,37.18
2023-07-14T02:09:02.567Z,37.57
2023-07-14T02:10:02.605Z,37.77
2023-07-14T02:11:02.562Z,37.77
2023-07-14T02:12:02.547Z,37.97
2023-07-14T02:13:02.581Z,37.57
2023-07-14T02:14:02.505Z,37.77
2023-07-14T02:15:02.524Z,37.57
2023-07-14T02:16:02.461Z,36.98
2023-07-14T02:17:02.572Z,36.98
2023-07-14T02:18:02.479Z,37.38
2023-07-14T02:19:02.454Z,37.97
2023-07-14T02:20:02.498Z,37.97
2023-07-14T02:21:02.542Z,37.38
2023-07-14T02:22:02.434Z,37.57
2023-07-14T02:23:02.770Z,37.77
2023-07-14T02:24:02.422Z,37.38
2023-07-14T02:25:02.393Z,37.38
2023-07-14T02:26:02.370Z,37.77
2023-07-14T02:27:02.454Z,37.38
2023-07-14T02:28:02.340Z,37.97
2023-07-14T02:29:02.411Z,37.77
2023-07-14T02:30:02.316Z,37.57
2023-07-14T02:31:02.513Z,35.39
2023-07-14T02:32:02.298Z,37.38
2023-07-14T02:33:02.446Z,37.38
2023-07-14T02:34:02.279Z,36.38
2023-07-14T02:35:02.333Z,37.18
2023-07-14T02:36:02.320Z,37.97
2023-07-14T02:37:02.249Z,37.57
2023-07-14T02:38:02.553Z,37.77
2023-07-14T02:39:02.220Z,37.77
2023-07-14T02:40:02.255Z,36.58
2023-07-14T02:41:02.206Z,38.37
2023-07-14T02:42:02.204Z,37.18
2023-07-14T02:43:02.948Z,37.97
2023-07-14T02:44:02.154Z,37.77
2023-07-14T02:45:02.286Z,36.98
2023-07-14T02:46:02.258Z,37.97
2023-07-14T02:47:02.286Z,37.77
2023-07-14T02:48:02.197Z,36.58
2023-07-14T02:49:02.139Z,37.97
2023-07-14T02:50:02.155Z,37.38
2023-07-14T02:51:02.197Z,37.38
2023-07-14T02:52:02.083Z,37.77
2023-07-14T02:53:02.079Z,37.57
2023-07-14T02:54:02.037Z,37.38
2023-07-14T02:55:02.043Z,37.38
2023-07-14T02:56:02.134Z,37.57
2023-07-14T02:57:01.985Z,38.17
2023-07-14T02:58:02.072Z,37.57
2023-07-14T02:59:02.046Z,36.58
2023-07-14T03:00:01.970Z,36.58
2023-07-14T03:01:01.941Z,37.18
2023-07-14T03:02:01.988Z,37.97
2023-07-14T03:03:02.005Z,38.37
2023-07-14T03:04:02.064Z,37.97
2023-07-14T03:05:01.927Z,36.78
2023-07-14T03:06:01.925Z,37.97
2023-07-14T03:07:01.916Z,37.57
2023-07-14T03:08:01.876Z,37.77
2023-07-14T03:09:01.996Z,36.78
2023-07-14T03:10:01.940Z,37.97
2023-07-14T03:11:01.864Z,37.38
2023-07-14T03:12:01.927Z,37.57
2023-07-14T03:13:01.928Z,38.17
2023-07-14T03:14:01.870Z,38.97
2023-07-14T03:15:01.849Z,37.18
2023-07-14T03:16:01.874Z,38.97
2023-07-14T03:17:01.871Z,36.98
2023-07-14T03:18:01.874Z,37.77
2023-07-14T03:19:01.797Z,38.17
2023-07-14T03:20:01.774Z,37.97
2023-07-14T03:21:01.794Z,37.57
2023-07-14T03:22:01.801Z,37.57
2023-07-14T03:23:01.906Z,37.57
2023-07-14T03:24:01.722Z,37.77
2023-07-14T03:25:01.781Z,37.57
2023-07-14T03:26:01.685Z,37.38
2023-07-14T03:27:01.739Z,36.78
2023-07-14T03:28:01.729Z,36.98
2023-07-14T03:29:01.699Z,38.37
2023-07-14T03:30:01.675Z,38.17
2023-07-14T03:31:01.676Z,37.97
2023-07-14T03:32:01.695Z,38.57
2023-07-14T03:33:01.654Z,37.77
2023-07-14T03:34:01.599Z,38.37
2023-07-14T03:35:01.646Z,37.77
2023-07-14T03:36:01.575Z,38.17
2023-07-14T03:37:01.639Z,37.97
2023-07-14T03:38:01.609Z,37.77
2023-07-14T03:39:01.574Z,37.57
2023-07-14T03:40:01.532Z,37.97
2023-07-14T03:41:01.559Z,37.38
2023-07-14T03:42:01.550Z,37.18
2023-07-14T03:43:01.602Z,38.37
2023-07-14T03:44:01.534Z,36.78
2023-07-14T03:45:01.650Z,37.97
2023-07-14T03:46:01.740Z,38.37
2023-07-14T03:47:01.573Z,37.97
2023-07-14T03:48:01.537Z,37.38
2023-07-14T03:49:01.469Z,38.37
2023-07-14T03:50:01.475Z,37.97
2023-07-14T03:51:01.690Z,37.77
2023-07-14T03:52:01.403Z,37.77
2023-07-14T03:53:01.444Z,38.17
2023-07-14T03:54:01.382Z,37.38
2023-07-14T03:55:01.510Z,37.57
2023-07-14T03:56:01.388Z,37.57
2023-07-14T03:57:01.431Z,37.77
2023-07-14T03:58:03.709Z,37.97
2023-07-14T03:59:01.341Z,37.57
2023-07-14T04:00:01.335Z,35.39
2023-07-14T04:01:01.656Z,37.18
2023-07-14T04:02:01.295Z,37.38
2023-07-14T04:03:01.385Z,37.77
2023-07-14T04:04:01.663Z,38.17
2023-07-14T04:05:01.263Z,37.97
2023-07-14T04:06:01.229Z,38.37
2023-07-14T04:07:01.225Z,37.18
2023-07-14T04:08:01.223Z,37.97
2023-07-14T04:09:01.270Z,37.38
2023-07-14T04:10:01.265Z,37.97
2023-07-14T04:11:01.193Z,37.57
2023-07-14T04:12:01.275Z,37.57
2023-07-14T04:13:01.158Z,37.38
2023-07-14T04:14:01.201Z,37.97
2023-07-14T04:15:01.131Z,37.97
2023-07-14T04:16:01.175Z,37.57
2023-07-14T04:17:01.154Z,38.37
2023-07-14T04:18:01.230Z,38.57
2023-07-14T04:19:01.156Z,37.18
2023-07-14T04:20:01.142Z,37.57
2023-07-14T04:21:01.146Z,37.97
2023-07-14T04:22:01.056Z,36.98
2023-07-14T04:23:01.153Z,37.97
2023-07-14T04:24:01.167Z,37.57
2023-07-14T04:25:01.041Z,37.57
2023-07-14T04:26:01.036Z,37.97
2023-07-14T04:27:01.099Z,37.57
2023-07-14T04:28:01.300Z,37.57
2023-07-14T04:29:01.078Z,39.36
2023-07-14T04:30:01.030Z,37.57
2023-07-14T04:31:01.171Z,37.18
2023-07-14T04:32:01.120Z,37.97
2023-07-14T04:33:01.112Z,37.18
2023-07-14T04:34:00.953Z,37.57
2023-07-14T04:35:01.030Z,36.98
2023-07-14T04:36:00.962Z,37.57
2023-07-14T04:37:01.061Z,36.58
2023-07-14T04:38:00.919Z,36.38
2023-07-14T04:39:00.959Z,37.97
2023-07-14T04:40:01.170Z,37.57
2023-07-14T04:41:00.889Z,37.57
2023-07-14T04:42:00.840Z,37.57
2023-07-14T04:43:00.826Z,37.38
2023-07-14T04:44:00.820Z,37.97
2023-07-14T04:45:00.801Z,37.18
2023-07-14T04:46:00.848Z,37.77
2023-07-14T04:47:00.820Z,37.38
2023-07-14T04:48:00.879Z,37.97
2023-07-14T04:49:00.822Z,37.77
2023-07-14T04:50:00.783Z,37.77
2023-07-14T04:51:00.895Z,37.57
2023-07-14T04:52:00.809Z,37.18
2023-07-14T04:53:00.835Z,37.57
2023-07-14T04:54:00.736Z,37.57
2023-07-14T04:55:00.725Z,37.38
2023-07-14T04:56:00.708Z,37.77
2023-07-14T04:57:00.712Z,37.57
2023-07-14T04:58:00.667Z,37.38
2023-07-14T04:59:00.709Z,37.38
2023-07-14T05:00:00.654Z,37.97
2023-07-14T05:01:00.700Z,37.97
2023-07-14T05:02:00.672Z,37.38
2023-07-14T05:03:00.722Z,37.18
2023-07-14T05:04:00.615Z,37.18
2023-07-14T05:05:01.556Z,37.57
2023-07-14T05:06:00.602Z,38.17
2023-07-14T05:07:00.616Z,37.57
2023-07-14T05:08:00.567Z,37.38
2023-07-14T05:09:00.532Z,37.97
2023-07-14T05:10:00.575Z,37.57
2023-07-14T05:11:00.516Z,37.18
2023-07-14T05:12:00.517Z,37.38
2023-07-14T05:13:00.547Z,37.18
2023-07-14T05:14:00.499Z,37.38
2023-07-14T05:15:00.487Z,36.78
2023-07-14T05:16:00.560Z,37.77
2023-07-14T05:17:00.450Z,37.97
2023-07-14T05:18:00.496Z,37.97
2023-07-14T05:19:00.491Z,37.57
2023-07-14T05:20:00.432Z,37.38
2023-07-14T05:21:00.575Z,37.77
2023-07-14T05:22:00.421Z,37.57
2023-07-14T05:23:00.589Z,37.38
2023-07-14T05:24:03.153Z,39.96
2023-07-14T05:25:00.433Z,37.77
2023-07-14T05:26:00.435Z,37.57
2023-07-14T05:27:00.333Z,37.77
2023-07-14T05:28:00.346Z,37.77
2023-07-14T05:29:00.392Z,38.37
2023-07-14T05:30:00.486Z,37.77
2023-07-14T05:31:02.318Z,37.57
2023-07-14T05:32:00.300Z,37.77
2023-07-14T05:33:00.396Z,36.98
2023-07-14T05:34:00.312Z,37.97
2023-07-14T05:35:00.313Z,37.38
2023-07-14T05:36:00.364Z,37.77
2023-07-14T05:37:00.383Z,37.38
2023-07-14T05:38:00.308Z,38.17
2023-07-14T05:39:00.290Z,36.98
2023-07-14T05:40:00.282Z,38.37
2023-07-14T05:41:00.215Z,37.77
2023-07-14T05:42:00.229Z,37.57
2023-07-14T05:43:00.215Z,37.18
2023-07-14T05:44:00.189Z,37.77
2023-07-14T05:45:00.230Z,37.77
2023-07-14T05:46:00.220Z,36.98
2023-07-14T05:47:00.210Z,37.57
2023-07-14T05:48:00.205Z,37.97
2023-07-14T05:49:00.182Z,37.77
2023-07-14T05:50:00.148Z,37.77
2023-07-14T05:51:00.153Z,37.77
2023-07-14T05:52:00.103Z,37.77
2023-07-14T05:53:00.078Z,37.97
2023-07-14T05:54:00.164Z,38.17
2023-07-14T05:55:00.145Z,37.38
2023-07-14T05:56:00.049Z,38.17
2023-07-14T05:57:00.086Z,37.77
2023-07-14T05:58:00.010Z,37.97
2023-07-14T05:59:00.006Z,37.77
2023-07-14T06:00:00.053Z,37.97
2023-07-14T06:01:00.028Z,37.38
2023-07-14T06:02:00.019Z,37.57
2023-07-14T06:03:00.072Z,37.38
2023-07-14T06:03:59.964Z,37.18
2023-07-14T06:05:00.025Z,36.78
2023-07-14T06:05:59.942Z,38.37
2023-07-14T06:06:59.969Z,37.38
2023-07-14T06:07:59.952Z,37.38
2023-07-14T06:08:59.965Z,37.77
2023-07-14T06:09:59.903Z,37.77
2023-07-14T06:10:59.958Z,37.97
2023-07-14T06:11:59.867Z,37.38
2023-07-14T06:12:59.917Z,37.18
2023-07-14T06:13:59.875Z,38.17
2023-07-14T06:14:59.866Z,36.98
2023-07-14T06:15:59.893Z,37.18
2023-07-14T06:16:59.910Z,37.77
2023-07-14T06:17:59.836Z,37.77
2023-07-14T06:18:59.754Z,37.38
2023-07-14T06:19:59.768Z,37.97
2023-07-14T06:20:59.786Z,37.77
2023-07-14T06:21:59.754Z,37.97
2023-07-14T06:22:59.806Z,37.57
2023-07-14T06:23:59.794Z,37.57
2023-07-14T06:24:59.786Z,37.97
2023-07-14T06:25:59.776Z,38.37
2023-07-14T06:26:59.820Z,37.77
2023-07-14T06:27:59.737Z,37.38
2023-07-14T06:28:59.693Z,37.57
2023-07-14T06:29:59.705Z,37.38
2023-07-14T06:30:59.773Z,37.77
2023-07-14T06:31:59.700Z,36.78
2023-07-14T06:32:59.625Z,37.57
2023-07-14T06:33:59.662Z,37.18
2023-07-14T06:34:59.691Z,37.77
2023-07-14T06:35:59.608Z,37.77
2023-07-14T06:36:59.555Z,37.38
2023-07-14T06:37:59.567Z,37.38
2023-07-14T06:38:59.605Z,37.38
2023-07-14T06:39:59.579Z,37.77
2023-07-14T06:40:59.539Z,37.97
2023-07-14T06:41:59.605Z,37.18
2023-07-14T06:42:59.528Z,36.98
2023-07-14T06:44:08.574Z,37.18
2023-07-14T06:45:00.544Z,37.38
2023-07-14T06:45:59.529Z,37.97
2023-07-14T06:46:59.538Z,37.57
2023-07-14T06:47:59.568Z,36.98
2023-07-14T06:49:07.749Z,37.57
2023-07-14T06:50:00.478Z,37.38
2023-07-14T06:50:59.486Z,37.97
2023-07-14T06:51:59.436Z,37.57
2023-07-14T06:52:59.487Z,37.18
2023-07-14T06:53:59.487Z,37.18
2023-07-14T06:54:59.382Z,38.17
2023-07-14T06:55:59.338Z,37.57
2023-07-14T06:56:59.324Z,36.78
2023-07-14T06:57:59.354Z,37.57
2023-07-14T06:58:59.312Z,36.98
2023-07-14T06:59:59.365Z,37.77
2023-07-14T07:00:59.273Z,37.18
2023-07-14T07:01:59.328Z,37.38
2023-07-14T07:02:59.318Z,36.98
2023-07-14T07:03:59.253Z,37.38
2023-07-14T07:04:59.370Z,37.18
2023-07-14T07:05:59.277Z,37.57
2023-07-14T07:06:59.345Z,37.18
2023-07-14T07:07:59.216Z,36.58
2023-07-14T07:08:59.283Z,38.97
2023-07-14T07:09:59.249Z,36.58
2023-07-14T07:10:59.348Z,37.18
2023-07-14T07:11:59.186Z,36.78
2023-07-14T07:12:59.195Z,37.77
2023-07-14T07:13:59.125Z,36.98
2023-07-14T07:14:59.173Z,37.18
2023-07-14T07:15:59.128Z,37.18
2023-07-14T07:16:59.184Z,37.38
2023-07-14T07:17:59.220Z,37.18
2023-07-14T07:18:59.078Z,37.38
2023-07-14T07:19:59.109Z,37.38
2023-07-14T07:20:59.163Z,37.18
2023-07-14T07:21:59.079Z,37.38
2023-07-14T07:22:59.214Z,36.78
2023-07-14T07:23:59.117Z,37.18
2023-07-14T07:24:59.074Z,37.38
2023-07-14T07:25:59.033Z,37.97
2023-07-14T07:26:59.078Z,36.78
2023-07-14T07:27:59.075Z,37.57
2023-07-14T07:28:59.018Z,36.78
2023-07-14T07:29:59.021Z,37.18
2023-07-14T07:30:59.211Z,37.77
2023-07-14T07:31:59.057Z,37.18
2023-07-14T07:32:58.974Z,36.98
2023-07-14T07:33:58.944Z,36.78
2023-07-14T07:34:58.920Z,36.98
2023-07-14T07:35:58.954Z,37.18
2023-07-14T07:36:58.916Z,36.98
2023-07-14T07:37:58.876Z,37.18
2023-07-14T07:38:58.864Z,36.98
2023-07-14T07:39:58.878Z,37.18
2023-07-14T07:40:58.866Z,37.18
2023-07-14T07:41:58.934Z,36.98
2023-07-14T07:42:58.877Z,36.98
2023-07-14T07:43:58.855Z,37.38
2023-07-14T07:44:58.920Z,37.18
2023-07-14T07:45:58.871Z,37.38
2023-07-14T07:46:58.841Z,36.98
2023-07-14T07:47:58.803Z,36.58
2023-07-14T07:48:58.835Z,36.98
2023-07-14T07:49:58.807Z,37.38
2023-07-14T07:50:58.823Z,36.98
2023-07-14T07:51:58.764Z,36.98
2023-07-14T07:52:58.770Z,37.57
2023-07-14T07:53:58.776Z,36.78
2023-07-14T07:54:58.771Z,37.57
2023-07-14T07:55:58.905Z,36.98
2023-07-14T07:56:58.695Z,36.98
2023-07-14T07:57:58.893Z,36.78
2023-07-14T07:58:58.700Z,36.98
2023-07-14T07:59:58.699Z,36.18
2023-07-14T08:00:58.652Z,36.58
2023-07-14T08:01:58.728Z,36.78
2023-07-14T08:02:58.761Z,37.18
2023-07-14T08:03:58.762Z,37.18
2023-07-14T08:04:58.709Z,36.98
2023-07-14T08:05:58.620Z,36.98
2023-07-14T08:06:58.799Z,36.98
2023-07-14T08:07:58.573Z,37.38
2023-07-14T08:08:58.591Z,37.57
2023-07-14T08:09:58.541Z,36.98
2023-07-14T08:10:58.525Z,36.98
2023-07-14T08:11:58.523Z,37.57
2023-07-14T08:12:58.539Z,36.78
2023-07-14T08:13:59.237Z,36.98
2023-07-14T08:14:58.587Z,36.78
2023-07-14T08:15:58.742Z,35.59
2023-07-14T08:16:58.553Z,36.58
2023-07-14T08:17:58.544Z,36.38
2023-07-14T08:18:58.537Z,36.78
2023-07-14T08:19:58.475Z,36.38
2023-07-14T08:20:58.673Z,36.58
2023-07-14T08:21:58.456Z,35.98
2023-07-14T08:22:58.469Z,36.78
2023-07-14T08:23:58.443Z,36.38
2023-07-14T08:24:58.447Z,36.58
2023-07-14T08:25:58.417Z,36.58
2023-07-14T08:26:58.453Z,36.58
2023-07-14T08:27:58.383Z,36.78
2023-07-14T08:28:58.366Z,36.18
2023-07-14T08:29:58.378Z,36.38
2023-07-14T08:30:58.508Z,36.78
2023-07-14T08:31:58.447Z,36.58
2023-07-14T08:32:58.530Z,36.78
2023-07-14T08:33:58.323Z,36.38
2023-07-14T08:34:58.332Z,36.18
2023-07-14T08:35:58.269Z,36.98
2023-07-14T08:36:58.276Z,36.98
2023-07-14T08:37:58.297Z,36.58
2023-07-14T08:38:58.257Z,36.78
2023-07-14T08:39:58.277Z,36.98
2023-07-14T08:40:58.337Z,36.58
2023-07-14T08:41:58.232Z,36.78
2023-07-14T08:42:58.216Z,36.78
2023-07-14T08:43:58.190Z,36.98
2023-07-14T08:44:58.218Z,36.58
2023-07-14T08:45:58.264Z,36.98
2023-07-14T08:46:58.182Z,36.78
2023-07-14T08:47:58.243Z,36.78
2023-07-14T08:48:58.228Z,36.98
2023-07-14T08:49:58.185Z,36.98
2023-07-14T08:50:58.132Z,36.78
2023-07-14T08:51:58.145Z,36.58
2023-07-14T08:52:58.137Z,37.18
2023-07-14T08:53:58.125Z,36.78
2023-07-14T08:54:58.221Z,36.38
2023-07-14T08:55:58.079Z,35.98
2023-07-14T08:56:58.112Z,36.38
2023-07-14T08:57:58.053Z,36.98
2023-07-14T08:58:58.306Z,36.58
2023-07-14T08:59:58.081Z,36.98
2023-07-14T09:00:58.103Z,36.38
2023-07-14T09:01:58.015Z,36.58
2023-07-14T09:02:58.040Z,35.98
2023-07-14T09:03:58.101Z,36.38
2023-07-14T09:04:57.976Z,36.38
2023-07-14T09:05:57.978Z,36.38
2023-07-14T09:06:57.978Z,35.39
2023-07-14T09:07:57.958Z,35.59
2023-07-14T09:08:57.951Z,35.79
2023-07-14T09:09:57.921Z,36.78
2023-07-14T09:10:57.956Z,36.18
2023-07-14T09:11:57.929Z,36.18
2023-07-14T09:12:57.934Z,36.18
2023-07-14T09:13:57.917Z,36.58
2023-07-14T09:14:57.882Z,35.98
2023-07-14T09:15:57.906Z,36.18
2023-07-14T09:16:57.903Z,36.38
2023-07-14T09:17:57.926Z,35.98
2023-07-14T09:18:57.956Z,36.38
2023-07-14T09:19:57.837Z,36.58
2023-07-14T09:20:57.881Z,34.99
2023-07-14T09:21:57.794Z,36.18
2023-07-14T09:22:59.496Z,35.59
2023-07-14T09:23:57.761Z,36.18
2023-07-14T09:24:57.752Z,35.59
2023-07-14T09:25:57.740Z,36.18
2023-07-14T09:26:57.747Z,36.78
2023-07-14T09:27:57.759Z,36.18
2023-07-14T09:28:57.763Z,35.98
2023-07-14T09:29:57.753Z,37.38
2023-07-14T09:30:57.963Z,35.98
2023-07-14T09:31:57.701Z,37.77
2023-07-14T09:32:57.714Z,36.18
2023-07-14T09:33:57.696Z,35.98
2023-07-14T09:34:57.671Z,35.59
2023-07-14T09:35:57.652Z,36.38
2023-07-14T09:36:57.731Z,35.98
2023-07-14T09:37:58.608Z,36.58
2023-07-14T09:38:57.631Z,36.18
2023-07-14T09:39:57.576Z,35.59
2023-07-14T09:40:57.700Z,35.79
2023-07-14T09:41:57.676Z,36.18
2023-07-14T09:42:57.576Z,35.98
2023-07-14T09:43:57.541Z,35.19
2023-07-14T09:44:57.540Z,36.18
2023-07-14T09:45:57.591Z,36.18
2023-07-14T09:46:57.592Z,35.98
2023-07-14T09:47:57.759Z,35.98
2023-07-14T09:48:57.559Z,36.38
2023-07-14T09:49:57.480Z,35.79
2023-07-14T09:50:57.491Z,36.58
2023-07-14T09:51:57.447Z,35.98
2023-07-14T09:52:57.462Z,36.18
2023-07-14T09:53:57.407Z,36.18
2023-07-14T09:54:57.461Z,35.98
2023-07-14T09:55:57.414Z,36.58
2023-07-14T09:56:57.378Z,36.18
2023-07-14T09:58:10.922Z,35.98
2023-07-14T09:58:58.396Z,36.78
2023-07-14T09:59:57.382Z,36.58
2023-07-14T10:00:57.394Z,35.98
2023-07-14T10:01:57.349Z,35.79
2023-07-14T10:02:57.434Z,37.38
2023-07-14T10:03:57.328Z,36.58
2023-07-14T10:04:57.422Z,35.79
2023-07-14T10:05:57.301Z,36.38
2023-07-14T10:06:57.280Z,35.98
2023-07-14T10:07:57.259Z,36.18
2023-07-14T10:08:57.266Z,34.59
2023-07-14T10:09:57.285Z,36.18
2023-07-14T10:10:57.261Z,35.79
2023-07-14T10:11:57.254Z,36.78
2023-07-14T10:12:57.227Z,35.98
2023-07-14T10:13:57.240Z,35.79
2023-07-14T10:14:57.266Z,36.38
2023-07-14T10:15:57.191Z,36.18
2023-07-14T10:16:57.211Z,36.38
2023-07-14T10:17:57.262Z,35.79
2023-07-14T10:18:57.235Z,36.38
2023-07-14T10:19:57.244Z,36.18
2023-07-14T10:20:57.150Z,36.58
2023-07-14T10:21:57.125Z,36.38
2023-07-14T10:22:57.248Z,35.98
2023-07-14T10:23:57.099Z,35.59
2023-07-14T10:24:57.105Z,35.98
2023-07-14T10:25:57.109Z,36.38
2023-07-14T10:26:57.095Z,35.59
2023-07-14T10:27:57.114Z,35.98
2023-07-14T10:28:59.311Z,36.78
2023-07-14T10:29:57.029Z,36.98
2023-07-14T10:30:57.087Z,36.38
2023-07-14T10:31:57.080Z,36.18
2023-07-14T10:32:57.035Z,36.38
2023-07-14T10:33:57.032Z,35.98
2023-07-14T10:34:59.177Z,35.98
2023-07-14T10:35:57.013Z,36.18
2023-07-14T10:36:56.984Z,35.39
2023-07-14T10:37:56.948Z,36.38
2023-07-14T10:38:56.931Z,36.18
2023-07-14T10:39:56.918Z,36.38
2023-07-14T10:40:56.960Z,35.79
2023-07-14T10:41:56.949Z,35.98
2023-07-14T10:42:57.126Z,36.18
2023-07-14T10:43:56.930Z,34.39
2023-07-14T10:44:56.905Z,35.79
2023-07-14T10:45:56.946Z,36.38
2023-07-14T10:46:56.976Z,36.58
2023-07-14T10:47:56.973Z,36.38
2023-07-14T10:48:56.879Z,36.18
2023-07-14T10:49:56.849Z,35.79
2023-07-14T10:50:56.868Z,35.79
2023-07-14T10:51:56.846Z,36.58
2023-07-14T10:52:56.836Z,36.18
2023-07-14T10:53:56.891Z,35.98
2023-07-14T10:54:56.789Z,35.79
2023-07-14T10:55:57.715Z,33.60
2023-07-14T10:56:56.958Z,35.98
2023-07-14T10:57:56.776Z,36.18
2023-07-14T10:58:56.879Z,35.79
2023-07-14T10:59:56.753Z,35.98
2023-07-14T11:00:56.734Z,36.38
2023-07-14T11:01:56.772Z,35.98
2023-07-14T11:02:56.851Z,36.18
2023-07-14T11:03:56.727Z,36.38
2023-07-14T11:04:59.479Z,36.78
2023-07-14T11:05:56.675Z,35.98
2023-07-14T11:06:58.202Z,35.39
2023-07-14T11:07:56.646Z,36.18
2023-07-14T11:08:56.696Z,36.38
2023-07-14T11:09:56.592Z,35.98
2023-07-14T11:10:56.625Z,36.18
2023-07-14T11:11:56.641Z,36.58
2023-07-14T11:12:56.708Z,36.38
2023-07-14T11:13:56.640Z,36.18
2023-07-14T11:14:56.588Z,36.58
2023-07-14T11:15:56.604Z,36.18
2023-07-14T11:16:56.609Z,36.18
2023-07-14T11:17:56.578Z,35.79
2023-07-14T11:18:56.609Z,36.18
2023-07-14T11:19:56.537Z,35.79
2023-07-14T11:20:56.498Z,36.58
2023-07-14T11:22:05.825Z,36.78
2023-07-14T11:22:57.548Z,36.78
2023-07-14T11:23:56.470Z,35.98
2023-07-14T11:24:56.704Z,35.59
2023-07-14T11:25:56.447Z,35.79
2023-07-14T11:26:56.431Z,35.79
2023-07-14T11:27:56.393Z,35.98
2023-07-14T11:28:56.802Z,35.98
2023-07-14T11:29:56.448Z,35.59
2023-07-14T11:30:56.522Z,36.38
2023-07-14T11:31:56.441Z,37.18
2023-07-14T11:32:56.437Z,36.38
2023-07-14T11:33:56.423Z,35.98
2023-07-14T11:34:56.381Z,35.98
2023-07-14T11:35:56.330Z,35.98
2023-07-14T11:36:56.333Z,36.38
2023-07-14T11:37:56.338Z,36.18
2023-07-14T11:38:56.322Z,36.18
2023-07-14T11:39:56.347Z,36.18
2023-07-14T11:40:56.416Z,35.59
2023-07-14T11:41:56.272Z,35.98
2023-07-14T11:42:56.264Z,35.79
2023-07-14T11:43:56.289Z,36.78
2023-07-14T11:44:56.273Z,36.58
2023-07-14T11:45:56.360Z,36.18
2023-07-14T11:46:56.284Z,35.98
2023-07-14T11:47:56.289Z,35.98
2023-07-14T11:48:56.298Z,36.18
2023-07-14T11:49:56.177Z,36.18
2023-07-14T11:50:56.224Z,36.18
2023-07-14T11:51:56.141Z,35.59
2023-07-14T11:52:56.194Z,36.18
2023-07-14T11:53:56.234Z,35.79
2023-07-14T11:54:56.200Z,35.79
2023-07-14T11:55:56.118Z,35.59
2023-07-14T11:56:56.137Z,35.79
2023-07-14T11:57:56.117Z,35.98
2023-07-14T11:58:56.122Z,36.18
2023-07-14T11:59:56.130Z,34.99
2023-07-14T12:00:56.057Z,35.98
2023-07-14T12:01:56.077Z,35.98
2023-07-14T12:02:56.126Z,35.59
2023-07-14T12:03:56.100Z,35.59
2023-07-14T12:04:56.137Z,35.79
2023-07-14T12:05:56.011Z,35.98
2023-07-14T12:06:56.001Z,36.18
2023-07-14T12:07:55.986Z,34.99
2023-07-14T12:08:55.996Z,36.38
2023-07-14T12:09:55.953Z,35.98
2023-07-14T12:10:55.973Z,36.18
2023-07-14T12:11:55.970Z,35.98
2023-07-14T12:12:56.042Z,35.98
2023-07-14T12:13:55.907Z,36.38
2023-07-14T12:14:55.922Z,35.59
2023-07-14T12:15:55.985Z,36.18
2023-07-14T12:16:56.064Z,36.38
2023-07-14T12:17:56.016Z,35.79
2023-07-14T12:18:55.912Z,35.98
2023-07-14T12:19:55.894Z,35.59
2023-07-14T12:20:55.938Z,35.79
2023-07-14T12:21:55.892Z,35.98
2023-07-14T12:22:55.900Z,36.18
2023-07-14T12:23:55.850Z,35.79
2023-07-14T12:24:55.853Z,35.79
2023-07-14T12:25:55.877Z,35.59
2023-07-14T12:26:55.815Z,36.38
2023-07-14T12:27:55.867Z,36.98
2023-07-14T12:28:55.826Z,35.39
2023-07-14T12:29:58.049Z,35.98
2023-07-14T12:30:55.810Z,35.98
2023-07-14T12:31:55.863Z,34.79
2023-07-14T12:32:55.840Z,35.79
2023-07-14T12:33:55.764Z,35.98
2023-07-14T12:34:55.770Z,35.59
2023-07-14T12:35:55.835Z,36.18
2023-07-14T12:36:55.720Z,35.39
2023-07-14T12:37:55.800Z,35.59
2023-07-14T12:38:55.721Z,35.59
2023-07-14T12:39:55.772Z,35.98
2023-07-14T12:40:55.731Z,37.18
2023-07-14T12:41:55.699Z,35.98
2023-07-14T12:42:55.679Z,34.99
2023-07-14T12:43:55.752Z,35.39
2023-07-14T12:44:55.661Z,35.79
2023-07-14T12:45:55.722Z,35.59
2023-07-14T12:46:55.835Z,35.79
2023-07-14T12:47:55.695Z,35.39
2023-07-14T12:48:55.642Z,35.79
2023-07-14T12:49:55.632Z,35.19
2023-07-14T12:50:55.626Z,35.79
2023-07-14T12:51:55.529Z,35.98